Terminal Aerodrome Forecast
Issued by NWS Sterling, VA

Home | Current Version | Previous Version | Text Only | Print | Product List | Glossary On
Versions: 1 2 3 4 5 6 7 8 9 10 11 12 13 14 15 16 17 18 19 20 21 22
000
FTUS41 KLWX 292000 AAB
TAFBWI
TAF AMD
KBWI 292100Z 2921/3024 15007KT P6SM SCT050 OVC090
     FM292200 16011KT 3SM -FZRAPL SCT025 OVC050
     FM300000 16009KT P6SM OVC050
     FM300800 26008KT P6SM BKN050
     FM301200 30012KT P6SM BKN050
     FM301300 30014G24KT P6SM BKN050
     FM301600 30018G32KT P6SM BKN050
     FM301900 30022G40KT P6SM BKN040
     FM302200 30022G37KT P6SM SCT040=

USA.gov is the U.S. government's official web portal to all federal, state and local government web resources and services.